createdAt,value
2022-12-18T00:01:33.879Z,27.87
2022-12-18T00:04:04.093Z,27.78
2022-12-18T00:06:32.164Z,27.55
2022-12-18T00:09:00.234Z,28.30
2022-12-18T00:11:30.522Z,28.04
2022-12-18T00:14:00.135Z,27.70
2022-12-18T00:16:28.234Z,27.87
2022-12-18T00:19:00.780Z,28.44
2022-12-18T00:21:29.417Z,27.21
2022-12-18T00:23:55.910Z,27.10
2022-12-18T00:26:29.338Z,27.66
2022-12-18T00:29:00.020Z,26.88
2022-12-18T00:31:26.770Z,27.11
2022-12-18T00:33:58.017Z,27.25
2022-12-18T00:36:28.301Z,27.46
2022-12-18T00:38:57.466Z,26.82
2022-12-18T00:41:24.432Z,27.41
2022-12-18T00:43:51.032Z,26.63
2022-12-18T00:46:17.580Z,27.05
2022-12-18T00:48:44.127Z,27.20
2022-12-18T00:51:11.699Z,27.42
2022-12-18T00:53:38.330Z,27.31
2022-12-18T00:56:05.072Z,27.45
2022-12-18T00:58:31.541Z,27.81
2022-12-18T01:00:58.343Z,27.57
2022-12-18T01:03:25.036Z,27.83
2022-12-18T01:05:51.489Z,27.91
2022-12-18T01:08:18.201Z,28.77
2022-12-18T01:10:44.651Z,29.87
2022-12-18T01:13:11.592Z,29.68
2022-12-18T01:15:38.210Z,29.51
2022-12-18T01:18:06.569Z,28.95
2022-12-18T01:20:33.510Z,28.82
2022-12-18T01:22:59.956Z,30.84
2022-12-18T01:25:26.410Z,30.68
2022-12-18T01:27:52.875Z,29.92
2022-12-18T01:30:19.328Z,30.22
2022-12-18T01:32:45.824Z,29.53
2022-12-18T01:35:12.311Z,29.69
2022-12-18T01:37:38.829Z,29.42
2022-12-18T01:40:06.101Z,29.05
2022-12-18T01:42:32.688Z,29.50
2022-12-18T01:45:01.250Z,29.07
2022-12-18T01:47:36.543Z,29.62
2022-12-18T01:50:26.432Z,30.58
2022-12-18T01:53:04.572Z,30.69
2022-12-18T01:55:37.831Z,30.00
2022-12-18T01:58:05.082Z,29.73
2022-12-18T02:00:31.789Z,30.45
2022-12-18T02:02:58.879Z,28.96
2022-12-18T02:05:43.388Z,29.54
2022-12-18T02:08:21.967Z,29.56
2022-12-18T02:11:11.780Z,29.17
2022-12-18T02:14:21.777Z,29.82
2022-12-18T02:17:04.595Z,29.87
2022-12-18T02:20:04.616Z,29.04
2022-12-18T02:22:44.248Z,29.72
2022-12-18T02:25:35.336Z,29.21
2022-12-18T02:28:09.920Z,28.62
2022-12-18T02:30:40.702Z,27.98
2022-12-18T02:33:11.968Z,27.51
2022-12-18T02:35:42.711Z,29.04
2022-12-18T02:38:10.424Z,29.25
2022-12-18T02:40:39.350Z,28.79
2022-12-18T02:43:14.945Z,28.99
2022-12-18T02:45:51.436Z,28.80
2022-12-18T02:48:24.744Z,28.97
2022-12-18T02:51:04.514Z,29.76
2022-12-18T02:53:46.201Z,28.98
2022-12-18T02:56:21.114Z,29.33
2022-12-18T02:59:07.104Z,29.10
2022-12-18T03:01:48.091Z,29.32
2022-12-18T03:04:22.460Z,29.71
2022-12-18T03:06:58.452Z,28.36
2022-12-18T03:09:37.350Z,28.44
2022-12-18T03:12:35.272Z,28.22
2022-12-18T03:15:17.645Z,28.90
2022-12-18T03:17:53.255Z,29.23
2022-12-18T03:20:22.688Z,29.76
2022-12-18T03:22:56.913Z,28.52
2022-12-18T03:25:26.587Z,30.12
2022-12-18T03:27:59.729Z,29.42
2022-12-18T03:30:30.681Z,29.87
2022-12-18T03:33:11.444Z,29.95
2022-12-18T03:35:42.416Z,29.74
2022-12-18T03:38:10.904Z,29.03
2022-12-18T03:41:16.372Z,29.40
2022-12-18T03:44:21.186Z,29.25
2022-12-18T03:47:24.577Z,29.80
2022-12-18T03:50:12.632Z,29.25
2022-12-18T03:53:03.855Z,29.06
2022-12-18T03:55:35.348Z,29.00
2022-12-18T03:58:07.688Z,29.31
2022-12-18T04:00:36.005Z,29.22
2022-12-18T04:03:05.721Z,29.03
2022-12-18T04:05:36.483Z,28.97
2022-12-18T04:08:04.168Z,29.38
2022-12-18T04:10:30.987Z,29.27
2022-12-18T04:13:25.643Z,28.80
2022-12-18T04:16:04.984Z,29.02
2022-12-18T04:18:31.958Z,29.56
2022-12-18T04:20:58.417Z,29.30
2022-12-18T04:23:24.899Z,29.72
2022-12-18T04:25:51.390Z,29.80
2022-12-18T04:28:18.133Z,29.74
2022-12-18T04:30:44.682Z,29.90
2022-12-18T04:33:14.039Z,29.21
2022-12-18T04:35:41.333Z,29.52
2022-12-18T04:38:09.010Z,28.60
2022-12-18T04:40:35.805Z,28.84
2022-12-18T04:43:02.461Z,28.52
2022-12-18T04:45:28.999Z,28.49
2022-12-18T04:47:55.484Z,28.94
2022-12-18T04:50:21.966Z,28.53
2022-12-18T04:52:48.493Z,28.99
2022-12-18T04:55:15.024Z,29.90
2022-12-18T04:57:41.475Z,29.62
2022-12-18T05:00:08.597Z,28.90
2022-12-18T05:02:35.146Z,28.99
2022-12-18T05:05:01.742Z,29.14
2022-12-18T05:07:28.219Z,28.83
2022-12-18T05:09:54.794Z,28.91
2022-12-18T05:12:26.557Z,29.49
2022-12-18T05:14:53.016Z,30.46
2022-12-18T05:17:19.575Z,29.79
2022-12-18T05:19:46.043Z,29.15
2022-12-18T05:22:12.899Z,29.34
2022-12-18T05:24:39.400Z,29.23
2022-12-18T05:27:05.848Z,29.51
2022-12-18T05:29:32.354Z,29.55
2022-12-18T05:31:58.818Z,28.59
2022-12-18T05:34:25.376Z,29.88
2022-12-18T05:36:51.858Z,30.05
2022-12-18T05:39:18.347Z,30.14
2022-12-18T05:41:44.833Z,30.20
2022-12-18T05:44:11.273Z,30.35
2022-12-18T05:46:37.911Z,31.32
2022-12-18T05:49:04.409Z,31.87
2022-12-18T05:51:30.873Z,31.68
2022-12-18T05:53:57.400Z,32.49
2022-12-18T05:56:24.101Z,32.44
2022-12-18T05:58:55.002Z,32.68
2022-12-18T06:01:25.203Z,33.37
2022-12-18T06:03:51.806Z,33.12
2022-12-18T06:06:21.466Z,32.81
2022-12-18T06:08:48.586Z,33.26
2022-12-18T06:11:20.099Z,31.92
2022-12-18T06:13:47.507Z,32.75
2022-12-18T06:16:14.024Z,31.61
2022-12-18T06:18:40.665Z,32.92
2022-12-18T06:21:07.212Z,33.08
2022-12-18T06:23:33.672Z,32.51
2022-12-18T06:26:13.157Z,31.82
2022-12-18T06:28:39.968Z,32.74
2022-12-18T06:31:08.138Z,32.68
2022-12-18T06:33:35.107Z,31.18
2022-12-18T06:36:07.144Z,31.61
2022-12-18T06:38:35.968Z,29.82
2022-12-18T06:41:11.132Z,31.39
2022-12-18T06:43:38.047Z,31.14
2022-12-18T06:46:06.320Z,30.91
2022-12-18T06:48:33.520Z,30.72
2022-12-18T06:51:00.211Z,30.75
2022-12-18T06:53:26.884Z,30.11
2022-12-18T06:55:53.569Z,30.19
2022-12-18T06:58:20.008Z,30.19
2022-12-18T07:00:46.573Z,29.58
2022-12-18T07:03:13.076Z,27.60
2022-12-18T07:05:42.302Z,27.54
2022-12-18T07:08:08.752Z,29.27
2022-12-18T07:10:47.454Z,29.07
2022-12-18T07:13:16.811Z,29.31
2022-12-18T07:15:44.639Z,28.32
2022-12-18T07:18:11.825Z,27.75
2022-12-18T07:20:38.307Z,24.82
2022-12-18T07:23:05.571Z,23.59
2022-12-18T07:25:35.851Z,25.15
2022-12-18T07:28:02.618Z,25.82
2022-12-18T07:30:29.122Z,25.56
2022-12-18T07:32:55.683Z,25.64
2022-12-18T07:35:25.188Z,25.69
2022-12-18T07:37:52.291Z,25.07
2022-12-18T07:40:18.988Z,25.96
2022-12-18T07:42:45.440Z,25.30
2022-12-18T07:45:11.981Z,25.19
2022-12-18T07:47:38.625Z,24.33
2022-12-18T07:50:06.802Z,24.73
2022-12-18T07:52:33.464Z,24.47
2022-12-18T07:55:00.538Z,23.66
2022-12-18T07:57:49.494Z,25.18
2022-12-18T08:00:14.065Z,26.04
2022-12-18T08:02:40.711Z,25.76
2022-12-18T08:05:09.148Z,23.38
2022-12-18T08:07:35.591Z,24.20
2022-12-18T08:10:02.077Z,24.66
2022-12-18T08:12:28.582Z,23.27
2022-12-18T08:14:55.058Z,24.55
2022-12-18T08:17:21.528Z,24.87
2022-12-18T08:19:47.991Z,23.69
2022-12-18T08:22:14.450Z,23.75
2022-12-18T08:24:41.084Z,24.74
2022-12-18T08:29:54.074Z,23.10
2022-12-18T08:32:20.562Z,24.46
2022-12-18T08:34:47.065Z,23.97
2022-12-18T08:37:13.532Z,25.01
2022-12-18T08:39:39.996Z,25.32
2022-12-18T08:42:10.021Z,25.30
2022-12-18T08:44:37.108Z,26.80
2022-12-18T08:47:03.863Z,26.74
2022-12-18T08:49:30.345Z,26.22
2022-12-18T08:51:57.820Z,26.01
2022-12-18T08:54:25.086Z,25.91
2022-12-18T08:56:52.167Z,25.71
2022-12-18T08:59:20.072Z,25.75
2022-12-18T09:01:48.380Z,25.37
2022-12-18T09:04:15.320Z,26.10
2022-12-18T09:06:41.916Z,26.18
2022-12-18T09:09:09.998Z,27.27
2022-12-18T09:11:36.485Z,26.27
2022-12-18T09:14:02.934Z,23.39
2022-12-18T09:16:32.227Z,21.72
2022-12-18T09:19:00.439Z,22.63
2022-12-18T09:21:29.646Z,22.96
2022-12-18T09:23:57.288Z,21.90
2022-12-18T09:26:25.796Z,22.06
2022-12-18T09:28:52.388Z,22.33
2022-12-18T09:31:22.076Z,22.96
2022-12-18T09:33:48.644Z,23.27
2022-12-18T09:36:17.533Z,23.37
2022-12-18T09:38:44.730Z,23.87
2022-12-18T09:41:32.444Z,23.98
2022-12-18T09:44:04.049Z,24.25
2022-12-18T09:46:38.226Z,25.07
2022-12-18T09:49:14.218Z,23.54
2022-12-18T09:51:48.076Z,25.01
2022-12-18T09:54:41.330Z,24.58
2022-12-18T09:57:14.873Z,24.53
2022-12-18T09:59:47.320Z,24.61
2022-12-18T10:02:21.656Z,23.51
2022-12-18T10:05:08.431Z,24.55
2022-12-18T10:07:49.877Z,23.84
2022-12-18T10:10:32.671Z,24.48
2022-12-18T10:13:38.042Z,23.86
2022-12-18T10:16:24.805Z,24.35
2022-12-18T10:19:13.061Z,24.12
2022-12-18T10:21:45.887Z,24.65
2022-12-18T10:24:53.919Z,25.82
2022-12-18T10:27:25.603Z,24.97
2022-12-18T10:29:52.457Z,24.21
2022-12-18T10:32:26.952Z,24.80
2022-12-18T10:35:00.501Z,24.33
2022-12-18T10:37:30.383Z,25.52
2022-12-18T10:40:10.860Z,26.18
2022-12-18T10:42:37.381Z,23.63
2022-12-18T10:45:14.634Z,23.67
2022-12-18T10:47:46.826Z,24.30
2022-12-18T10:50:47.211Z,23.26
2022-12-18T10:53:22.641Z,24.21
2022-12-18T10:55:49.865Z,24.38
2022-12-18T10:58:26.421Z,24.69
2022-12-18T11:01:15.862Z,25.47
2022-12-18T11:03:50.574Z,25.24
2022-12-18T11:06:19.917Z,25.99
2022-12-18T11:09:08.010Z,26.19
2022-12-18T11:11:39.865Z,25.97
2022-12-18T11:14:19.000Z,26.47
2022-12-18T11:17:23.831Z,26.10
2022-12-18T11:19:42.115Z,25.67
2022-12-18T11:22:26.188Z,25.62
2022-12-18T11:25:30.191Z,26.27
2022-12-18T11:27:58.177Z,26.08
2022-12-18T11:30:29.267Z,25.76
2022-12-18T11:33:10.351Z,25.69
2022-12-18T11:35:50.130Z,24.45
2022-12-18T11:38:30.459Z,24.82
2022-12-18T11:41:26.973Z,24.39
2022-12-18T11:44:06.465Z,25.59
2022-12-18T11:46:47.620Z,24.90
2022-12-18T11:49:23.289Z,24.75
2022-12-18T11:51:59.693Z,24.66
2022-12-18T11:54:26.310Z,24.68
2022-12-18T11:57:16.232Z,24.40
2022-12-18T11:59:57.934Z,25.11
2022-12-18T12:02:47.050Z,24.68
2022-12-18T12:05:42.612Z,25.65
2022-12-18T12:08:33.710Z,26.10
2022-12-18T12:11:21.202Z,25.55
2022-12-18T12:14:22.162Z,25.80
2022-12-18T12:16:59.880Z,25.67
2022-12-18T12:19:46.714Z,24.53
2022-12-18T12:22:30.155Z,25.02
2022-12-18T12:25:42.364Z,24.57
2022-12-18T12:28:46.087Z,24.83
2022-12-18T12:31:39.599Z,24.12
2022-12-18T12:34:19.187Z,24.55
2022-12-18T12:36:51.353Z,24.11
2022-12-18T12:39:24.939Z,23.94
2022-12-18T12:41:52.249Z,24.83
2022-12-18T12:44:34.528Z,23.97
2022-12-18T12:47:14.507Z,24.02
2022-12-18T12:49:47.007Z,23.84
2022-12-18T12:52:24.606Z,25.01
2022-12-18T12:54:52.872Z,24.46
2022-12-18T12:57:35.324Z,24.40
2022-12-18T13:00:10.834Z,24.44
2022-12-18T13:02:50.626Z,23.79
2022-12-18T13:05:39.691Z,25.42
2022-12-18T13:08:12.208Z,24.32
2022-12-18T13:10:44.672Z,24.41
2022-12-18T13:13:17.289Z,23.62
2022-12-18T13:16:08.978Z,24.62
2022-12-18T13:18:36.082Z,24.23
2022-12-18T13:21:18.208Z,23.46
2022-12-18T13:23:45.527Z,23.72
2022-12-18T13:26:20.864Z,23.27
2022-12-18T13:28:54.456Z,23.93
2022-12-18T13:31:39.711Z,23.70
2022-12-18T13:34:29.421Z,23.97
2022-12-18T13:37:18.307Z,23.20
2022-12-18T13:39:44.880Z,22.98
2022-12-18T13:42:11.609Z,23.40
2022-12-18T13:44:41.907Z,22.95
2022-12-18T13:47:35.677Z,23.66
2022-12-18T13:50:25.929Z,23.45
2022-12-18T13:52:54.836Z,23.56
2022-12-18T13:55:24.029Z,24.04
2022-12-18T13:57:50.597Z,23.27
2022-12-18T14:00:30.136Z,24.06
2022-12-18T14:02:58.759Z,23.83
2022-12-18T14:05:31.741Z,23.23
2022-12-18T14:08:17.102Z,23.44
2022-12-18T14:10:48.362Z,23.52
2022-12-18T14:13:27.863Z,24.16
2022-12-18T14:15:54.723Z,24.23
2022-12-18T14:18:42.965Z,24.30
2022-12-18T14:21:26.977Z,25.10
2022-12-18T14:24:19.777Z,23.43
2022-12-18T14:26:48.719Z,23.95
2022-12-18T14:29:24.034Z,24.11
2022-12-18T14:32:17.800Z,24.46
2022-12-18T14:34:52.504Z,24.40
2022-12-18T14:37:23.327Z,24.83
2022-12-18T14:39:55.101Z,23.93
2022-12-18T14:42:21.849Z,23.76
2022-12-18T14:45:12.934Z,24.76
2022-12-18T14:47:35.274Z,24.95
2022-12-18T14:50:01.941Z,24.66
2022-12-18T14:52:32.624Z,25.16
2022-12-18T14:54:59.295Z,25.15
2022-12-18T14:57:36.879Z,25.14
2022-12-18T15:00:16.026Z,25.70
2022-12-18T15:02:45.881Z,25.39
2022-12-18T15:05:28.988Z,24.85
2022-12-18T15:07:58.268Z,24.89
2022-12-18T15:10:31.145Z,25.98
2022-12-18T15:12:57.549Z,25.58
2022-12-18T15:15:36.168Z,25.41
2022-12-18T15:18:12.549Z,26.08
2022-12-18T15:20:43.952Z,26.54
2022-12-18T15:23:24.852Z,25.98
2022-12-18T15:26:06.094Z,25.85
2022-12-18T15:28:54.605Z,26.09
2022-12-18T15:31:27.694Z,25.55
2022-12-18T15:33:54.136Z,25.64
2022-12-18T15:36:26.858Z,26.74
2022-12-18T15:38:59.508Z,29.99
2022-12-18T15:41:34.436Z,27.07
2022-12-18T15:44:17.792Z,26.78
2022-12-18T15:46:44.314Z,27.39
2022-12-18T15:49:10.891Z,33.41
2022-12-18T15:51:39.854Z,31.29
2022-12-18T15:54:14.125Z,29.42
2022-12-18T15:56:40.634Z,30.09
2022-12-18T15:59:16.113Z,30.38
2022-12-18T16:01:46.680Z,30.16
2022-12-18T16:04:14.992Z,29.33
2022-12-18T16:07:12.680Z,29.85
2022-12-18T16:09:27.926Z,30.17
2022-12-18T16:11:54.450Z,29.86
2022-12-18T16:14:30.170Z,30.01
2022-12-18T16:17:00.238Z,31.53
2022-12-18T16:19:28.242Z,31.67
2022-12-18T16:21:57.652Z,30.44
2022-12-18T16:24:30.520Z,30.18
2022-12-18T16:26:59.515Z,30.48
2022-12-18T16:29:27.611Z,30.58
2022-12-18T16:31:59.307Z,29.52
2022-12-18T16:34:34.869Z,29.80
2022-12-18T16:37:06.198Z,29.23
2022-12-18T16:39:34.543Z,29.56
2022-12-18T16:42:09.462Z,29.44
2022-12-18T16:44:36.369Z,29.78
2022-12-18T16:47:04.090Z,30.07
2022-12-18T16:49:30.955Z,30.35
2022-12-18T16:51:57.915Z,30.26
2022-12-18T16:54:24.864Z,29.98
2022-12-18T16:56:52.216Z,30.02
2022-12-18T16:59:19.103Z,30.12
2022-12-18T17:01:46.794Z,31.27
2022-12-18T17:04:13.557Z,30.89
2022-12-18T17:06:44.481Z,30.86
2022-12-18T17:09:14.937Z,30.76
2022-12-18T17:11:42.460Z,33.87
2022-12-18T17:14:11.390Z,32.48
2022-12-18T17:16:37.961Z,31.17
2022-12-18T17:19:09.673Z,31.77
2022-12-18T17:21:40.772Z,31.42
2022-12-18T17:24:07.942Z,30.94
2022-12-18T17:26:34.457Z,30.50
2022-12-18T17:29:00.922Z,30.83
2022-12-18T17:31:29.804Z,30.40
2022-12-18T17:33:57.187Z,31.07
2022-12-18T17:36:24.787Z,31.30
2022-12-18T17:39:03.391Z,30.72
2022-12-18T17:41:30.705Z,31.58
2022-12-18T17:44:03.500Z,31.91
2022-12-18T17:46:32.594Z,30.40
2022-12-18T17:49:02.148Z,30.58
2022-12-18T17:51:30.590Z,30.31
2022-12-18T17:53:57.373Z,29.80
2022-12-18T17:56:24.652Z,30.14
2022-12-18T17:58:52.397Z,29.14
2022-12-18T18:01:22.493Z,29.97
2022-12-18T18:03:51.558Z,29.86
2022-12-18T18:06:20.340Z,29.56
2022-12-18T18:08:46.821Z,29.60
2022-12-18T18:11:16.645Z,30.50
2022-12-18T18:13:46.820Z,30.75
2022-12-18T18:16:13.838Z,31.25
2022-12-18T18:18:40.488Z,31.62
2022-12-18T18:21:08.789Z,31.41
2022-12-18T18:23:35.832Z,30.87
2022-12-18T18:26:05.086Z,30.64
2022-12-18T18:28:31.969Z,30.72
2022-12-18T18:31:03.606Z,30.20
2022-12-18T18:33:30.412Z,31.67
2022-12-18T18:35:56.891Z,31.23
2022-12-18T18:38:23.369Z,29.82
2022-12-18T18:41:01.818Z,30.71
2022-12-18T18:43:29.159Z,30.21
2022-12-18T18:45:56.855Z,30.53
2022-12-18T18:48:23.544Z,30.27
2022-12-18T18:50:59.273Z,30.58
2022-12-18T18:53:25.931Z,29.81
2022-12-18T18:56:26.161Z,30.69
2022-12-18T18:58:40.027Z,30.64
2022-12-18T19:01:16.811Z,31.41
2022-12-18T19:03:44.794Z,31.07
2022-12-18T19:06:15.819Z,32.02
2022-12-18T19:08:43.035Z,32.40
2022-12-18T19:11:11.367Z,32.58
2022-12-18T19:13:38.033Z,33.34
2022-12-18T19:16:09.080Z,32.86
2022-12-18T19:18:35.772Z,32.79
2022-12-18T19:21:05.098Z,31.09
2022-12-18T19:23:32.845Z,31.75
2022-12-18T19:26:17.011Z,31.43
2022-12-18T19:28:48.449Z,31.53
2022-12-18T19:31:22.860Z,31.43
2022-12-18T19:33:51.368Z,31.98
2022-12-18T19:36:23.398Z,30.84
2022-12-18T19:38:51.440Z,30.94
2022-12-18T19:41:18.827Z,31.78
2022-12-18T19:43:47.008Z,31.32
2022-12-18T19:46:16.045Z,32.07
2022-12-18T19:48:44.622Z,32.44
2022-12-18T19:51:24.256Z,31.79
2022-12-18T19:53:57.806Z,31.27
2022-12-18T19:56:28.673Z,32.34
2022-12-18T19:58:55.409Z,32.34
2022-12-18T20:01:24.719Z,33.09
2022-12-18T20:03:53.738Z,32.91
2022-12-18T20:06:31.387Z,32.08
2022-12-18T20:09:01.193Z,31.27
2022-12-18T20:11:33.336Z,31.52
2022-12-18T20:14:03.543Z,31.57
2022-12-18T20:16:30.288Z,31.90
2022-12-18T20:18:58.301Z,31.54
2022-12-18T20:21:25.434Z,30.79
2022-12-18T20:23:52.481Z,31.69
2022-12-18T20:26:19.277Z,32.44
2022-12-18T20:28:45.800Z,32.55
2022-12-18T20:31:13.546Z,32.14
2022-12-18T20:33:41.313Z,31.62
2022-12-18T20:36:13.092Z,31.23
2022-12-18T20:38:41.193Z,32.12
2022-12-18T20:41:10.447Z,32.68
2022-12-18T20:43:37.564Z,32.87
2022-12-18T20:46:08.232Z,32.19
2022-12-18T20:48:35.206Z,32.99
2022-12-18T20:51:05.366Z,33.08
2022-12-18T20:53:32.730Z,32.41
2022-12-18T20:55:59.487Z,33.40
2022-12-18T20:58:25.958Z,33.46
2022-12-18T21:01:13.290Z,32.87
2022-12-18T21:03:43.435Z,32.74
2022-12-18T21:06:10.393Z,31.51
2022-12-18T21:08:37.417Z,31.69
2022-12-18T21:11:15.975Z,31.37
2022-12-18T21:13:43.788Z,31.24
2022-12-18T21:16:10.321Z,31.96
2022-12-18T21:18:37.520Z,32.25
2022-12-18T21:21:04.008Z,32.12
2022-12-18T21:23:33.305Z,31.64
2022-12-18T21:26:25.198Z,31.82
2022-12-18T21:28:56.494Z,32.44
2022-12-18T21:31:25.301Z,32.17
2022-12-18T21:33:54.177Z,31.27
2022-12-18T21:36:29.741Z,32.11
2022-12-18T21:38:57.644Z,31.89
2022-12-18T21:41:27.077Z,31.82
2022-12-18T21:43:53.531Z,31.71
2022-12-18T21:46:20.089Z,30.90
2022-12-18T21:48:46.617Z,32.23
2022-12-18T21:51:13.088Z,31.60
2022-12-18T21:53:39.538Z,32.08
2022-12-18T21:56:06.103Z,31.88
2022-12-18T21:58:32.589Z,31.92
2022-12-18T22:00:59.183Z,32.08
2022-12-18T22:03:25.835Z,32.02
2022-12-18T22:06:03.496Z,31.94
2022-12-18T22:08:36.109Z,31.08
2022-12-18T22:11:08.118Z,31.43
2022-12-18T22:13:34.751Z,30.56
2022-12-18T22:16:01.409Z,30.76
2022-12-18T22:18:27.896Z,30.91
2022-12-18T22:21:01.898Z,30.31
2022-12-18T22:23:28.448Z,31.54
2022-12-18T22:25:55.058Z,30.62
2022-12-18T22:28:21.534Z,30.87
2022-12-18T22:30:48.048Z,30.98
2022-12-18T22:33:15.344Z,31.04
2022-12-18T22:35:42.054Z,30.39
2022-12-18T22:38:09.038Z,30.28
2022-12-18T22:40:35.536Z,30.08
2022-12-18T22:43:02.001Z,30.04
2022-12-18T22:45:28.524Z,29.25
2022-12-18T22:47:54.993Z,29.76
2022-12-18T22:50:21.477Z,28.71
2022-12-18T22:52:47.957Z,28.81
2022-12-18T22:55:14.418Z,28.60
2022-12-18T22:57:41.427Z,28.37
2022-12-18T23:00:15.253Z,29.49
2022-12-18T23:02:43.475Z,30.95
2022-12-18T23:05:10.144Z,33.00
2022-12-18T23:07:36.596Z,32.74
2022-12-18T23:10:03.263Z,32.18
2022-12-18T23:12:29.929Z,31.92
2022-12-18T23:14:56.563Z,31.75
2022-12-18T23:17:23.060Z,31.72
2022-12-18T23:19:49.629Z,31.38
2022-12-18T23:22:17.101Z,30.88
2022-12-18T23:24:43.701Z,31.92
2022-12-18T23:27:11.816Z,31.34
2022-12-18T23:29:39.518Z,29.65
2022-12-18T23:32:06.023Z,29.99
2022-12-18T23:34:32.505Z,29.50
2022-12-18T23:36:58.974Z,28.87
2022-12-18T23:39:29.369Z,28.33
2022-12-18T23:42:00.498Z,29.18
2022-12-18T23:44:27.833Z,28.96
2022-12-18T23:46:55.214Z,28.67
2022-12-18T23:49:22.285Z,29.81
2022-12-18T23:51:48.759Z,30.22
2022-12-18T23:54:15.359Z,30.34
2022-12-18T23:56:42.188Z,30.98
2022-12-18T23:59:08.745Z,30.37
